Time;durP1;ratioP1;P1;durP2;ratioP2;P2;SDS_P1;SDS_P2;PMS_P1;PMS_P2;Temp;Humidity;BMP_temperature;BMP_pressure;BME280_temperature;BME280_humidity;BME280_pressure;Samples;Min_cycle;Max_cycle;Signal;HPM_P1;HPM_P2
2021/03/09 00:00:28;;;;;;;17.73;9.45;;;-1.60;99.90;;;;;;5012331;28;20045;-74
2021/03/09 00:02:55;;;;;;;35.90;17.55;;;-1.60;99.90;;;;;;5013344;28;20030;-74
2021/03/09 00:05:21;;;;;;;45.38;23.35;;;-1.70;99.90;;;;;;5013177;28;20041;-75
2021/03/09 00:07:47;;;;;;;27.83;13.98;;;-1.70;99.90;;;;;;5013365;28;20034;-75
2021/03/09 00:10:14;;;;;;;39.60;19.65;;;-1.60;99.90;;;;;;5013353;28;20030;-75
2021/03/09 00:12:40;;;;;;;34.25;17.65;;;-1.70;99.90;;;;;;5013661;28;20034;-75
2021/03/09 00:15:07;;;;;;;28.80;14.50;;;-1.60;99.90;;;;;;5012967;28;20026;-75
2021/03/09 00:17:33;;;;;;;25.33;13.40;;;-1.70;99.90;;;;;;5026201;28;20040;-74
2021/03/09 00:20:02;;;;;;;18.50;9.68;;;-1.60;99.90;;;;;;5022993;28;20412;-75
2021/03/09 00:22:28;;;;;;;22.05;10.93;;;-1.60;99.90;;;;;;5019689;28;20053;-75
2021/03/09 00:24:54;;;;;;;22.70;10.10;;;-1.60;99.90;;;;;;5023239;28;20033;-75
2021/03/09 00:27:21;;;;;;;22.83;9.07;;;-1.70;99.90;;;;;;5031382;28;20109;-75
2021/03/09 00:29:47;;;;;;;21.45;9.23;;;-1.70;99.90;;;;;;5013862;28;20456;-75
2021/03/09 00:32:13;;;;;;;20.83;9.85;;;-1.70;99.90;;;;;;5027689;28;20061;-75
2021/03/09 00:34:40;;;;;;;22.85;10.43;;;-1.80;99.90;;;;;;5017503;28;20036;-75
2021/03/09 00:37:06;;;;;;;21.25;10.60;;;-1.80;99.90;;;;;;5030727;28;20033;-75
2021/03/09 00:39:33;;;;;;;26.25;10.90;;;-1.80;99.90;;;;;;5022694;28;20033;-75
2021/03/09 00:41:59;;;;;;;32.17;18.08;;;-1.80;99.90;;;;;;5031122;28;20382;-75
2021/03/09 00:44:25;;;;;;;31.25;15.32;;;-1.70;99.90;;;;;;5015114;28;20034;-75
2021/03/09 00:46:52;;;;;;;23.10;12.95;;;-1.80;99.90;;;;;;5016500;28;20042;-75
2021/03/09 00:49:19;;;;;;;26.02;13.63;;;-1.80;99.90;;;;;;5025021;28;20517;-75
2021/03/09 00:51:45;;;;;;;28.58;12.55;;;-1.80;99.90;;;;;;5018813;28;20037;-75
2021/03/09 00:54:12;;;;;;;22.38;11.60;;;-1.80;99.90;;;;;;5012148;28;20202;-75
2021/03/09 00:56:38;;;;;;;22.67;11.90;;;-1.80;99.90;;;;;;5016930;28;20037;-75
2021/03/09 00:59:04;;;;;;;23.00;12.27;;;-1.80;99.90;;;;;;5030983;28;20041;-75
2021/03/09 01:01:30;;;;;;;23.05;11.27;;;-1.90;99.90;;;;;;5014081;28;20046;-75
2021/03/09 01:03:56;;;;;;;29.30;13.15;;;-1.80;99.90;;;;;;5024808;28;20042;-75
2021/03/09 01:06:23;;;;;;;24.27;12.40;;;-1.90;99.90;;;;;;5010879;28;20427;-75
2021/03/09 01:08:49;;;;;;;26.27;12.45;;;-1.90;99.90;;;;;;5022356;28;20029;-75
2021/03/09 01:11:15;;;;;;;25.88;13.40;;;-2.00;99.90;;;;;;5012642;28;20472;-75
2021/03/09 01:13:41;;;;;;;29.88;13.75;;;-2.00;99.90;;;;;;5019903;28;20029;-74
2021/03/09 01:16:07;;;;;;;26.75;13.73;;;-2.00;99.90;;;;;;5021788;28;20052;-75
2021/03/09 01:18:34;;;;;;;21.35;11.45;;;-2.10;99.90;;;;;;5023537;28;20431;-75
2021/03/09 01:21:00;;;;;;;28.95;11.77;;;-2.10;99.90;;;;;;5027978;28;20037;-75
2021/03/09 01:23:26;;;;;;;24.92;10.98;;;-2.20;99.90;;;;;;5012277;28;20049;-75
2021/03/09 01:25:52;;;;;;;26.50;13.27;;;-2.20;99.90;;;;;;5012430;28;20034;-75
2021/03/09 01:28:19;;;;;;;26.77;13.55;;;-2.20;99.90;;;;;;5012490;28;20037;-75
2021/03/09 01:30:45;;;;;;;27.20;11.65;;;-2.20;99.90;;;;;;5013053;28;20045;-75
2021/03/09 01:33:11;;;;;;;27.40;11.75;;;-2.10;99.90;;;;;;5011806;28;20415;-75
2021/03/09 01:35:38;;;;;;;27.40;13.18;;;-2.10;99.90;;;;;;5029105;28;20037;-74
2021/03/09 01:38:05;;;;;;;31.02;13.77;;;-2.20;99.90;;;;;;5016416;28;20030;-75
2021/03/09 01:40:32;;;;;;;26.85;12.63;;;-2.10;99.90;;;;;;5012499;28;20026;-75
2021/03/09 01:42:58;;;;;;;29.65;13.43;;;-2.20;99.90;;;;;;5012154;28;20053;-75
2021/03/09 01:45:25;;;;;;;27.75;13.50;;;-2.10;99.90;;;;;;5014614;28;20042;-75
2021/03/09 01:47:58;;;;;;;29.55;12.52;;;-2.20;99.90;;;;;;5020576;28;20033;-75
2021/03/09 01:50:26;;;;;;;33.00;15.15;;;-2.20;99.90;;;;;;5033973;28;20025;-74
2021/03/09 01:52:53;;;;;;;27.40;13.65;;;-2.20;99.90;;;;;;5034797;28;20045;-75
2021/03/09 01:55:20;;;;;;;24.23;12.73;;;-2.20;99.90;;;;;;5029945;28;20037;-74
2021/03/09 01:57:47;;;;;;;27.20;14.32;;;-2.20;99.90;;;;;;5015794;28;20029;-75
2021/03/09 02:00:14;;;;;;;25.40;13.13;;;-2.20;99.90;;;;;;5027334;28;20042;-75
2021/03/09 02:02:41;;;;;;;27.15;13.68;;;-2.20;99.90;;;;;;5034293;28;20061;-75
2021/03/09 02:05:10;;;;;;;31.52;13.48;;;-2.10;99.90;;;;;;5023721;28;20045;-75
2021/03/09 02:07:36;;;;;;;25.67;12.90;;;-2.10;99.90;;;;;;5015732;28;20460;-75
2021/03/09 02:10:05;;;;;;;34.22;14.77;;;-2.10;99.90;;;;;;5015840;28;20468;-75
2021/03/09 02:12:39;;;;;;;26.48;12.82;;;-2.10;99.90;;;;;;5015696;28;20037;-75
2021/03/09 02:15:44;;;;;;;32.00;14.23;;;-2.10;99.90;;;;;;5015481;28;20030;-75
2021/03/09 02:18:19;;;;;;;33.45;14.68;;;-2.20;99.90;;;;;;5015353;28;20034;-75
2021/03/09 02:21:30;;;;;;;27.65;14.00;;;-2.10;99.90;;;;;;5015407;28;20407;-75
2021/03/09 02:24:33;;;;;;;22.58;11.77;;;-2.20;99.90;;;;;;5020927;28;20022;-75
2021/03/09 02:27:27;;;;;;;25.13;13.57;;;-2.10;99.90;;;;;;5015296;28;20037;-76
2021/03/09 02:30:08;;;;;;;25.63;14.20;;;-2.20;99.90;;;;;;5015578;28;20033;-75
2021/03/09 02:32:42;;;;;;;29.73;12.73;;;-2.20;99.90;;;;;;5015983;28;20054;-75
2021/03/09 02:35:12;;;;;;;26.23;13.00;;;-2.20;99.90;;;;;;5024852;28;20064;-75
2021/03/09 02:37:41;;;;;;;27.90;14.02;;;-2.20;99.90;;;;;;5033786;28;20034;-75
2021/03/09 02:40:12;;;;;;;28.98;13.70;;;-2.20;99.90;;;;;;5024995;28;20041;-75
2021/03/09 02:42:46;;;;;;;30.08;13.85;;;-2.20;99.90;;;;;;5022571;28;20056;-75
2021/03/09 02:45:15;;;;;;;27.20;14.13;;;-2.20;99.90;;;;;;5022673;28;20498;-75
2021/03/09 02:47:45;;;;;;;32.80;14.50;;;-2.20;99.90;;;;;;5014799;28;20133;-75
2021/03/09 02:50:13;;;;;;;33.50;15.00;;;-2.10;99.90;;;;;;5013507;28;20053;-75
2021/03/09 02:52:44;;;;;;;33.10;15.48;;;-2.20;99.90;;;;;;5014690;28;20049;-75
2021/03/09 02:55:12;;;;;;;24.80;12.23;;;-2.20;99.90;;;;;;5014763;28;20037;-76
2021/03/09 02:57:40;;;;;;;30.40;14.05;;;-2.20;99.90;;;;;;5014210;28;20742;-75
2021/03/09 03:00:08;;;;;;;32.00;15.20;;;-2.10;99.90;;;;;;5028608;28;20048;-75
2021/03/09 03:02:37;;;;;;;32.42;15.48;;;-2.10;99.90;;;;;;5025751;28;20038;-75
2021/03/09 03:05:07;;;;;;;37.28;16.05;;;-2.10;99.90;;;;;;5015567;28;20044;-76
2021/03/09 03:07:34;;;;;;;34.30;15.85;;;-2.10;99.90;;;;;;5033630;28;20033;-75
2021/03/09 03:10:01;;;;;;;33.00;15.02;;;-2.10;99.90;;;;;;5026704;28;20029;-75
2021/03/09 03:12:33;;;;;;;31.15;16.60;;;-2.10;99.90;;;;;;5014239;28;20037;-75
2021/03/09 03:15:01;;;;;;;36.72;16.70;;;-2.00;99.90;;;;;;5014313;28;20033;-75
2021/03/09 03:17:30;;;;;;;30.00;16.67;;;-2.00;99.90;;;;;;5021100;28;20046;-75
2021/03/09 03:19:57;;;;;;;34.50;15.55;;;-2.00;99.90;;;;;;5032696;28;20463;-75
2021/03/09 03:22:25;;;;;;;30.60;13.80;;;-1.90;99.90;;;;;;5030691;28;20038;-75
2021/03/09 03:24:52;;;;;;;31.27;15.27;;;-1.90;99.90;;;;;;5021696;28;20060;-75
2021/03/09 03:27:19;;;;;;;30.67;16.50;;;-1.80;99.90;;;;;;5027210;28;20045;-75
2021/03/09 03:29:48;;;;;;;31.45;14.90;;;-1.80;99.90;;;;;;5018925;28;20029;-75
2021/03/09 03:32:15;;;;;;;31.95;14.15;;;-1.80;99.90;;;;;;5032107;28;20033;-75
2021/03/09 03:34:44;;;;;;;28.75;14.70;;;-1.70;99.90;;;;;;5033021;28;20475;-75
2021/03/09 03:37:12;;;;;;;30.95;14.63;;;-1.70;99.90;;;;;;5018295;28;20388;-75
2021/03/09 03:39:39;;;;;;;30.95;15.20;;;-1.70;99.90;;;;;;5014245;28;20034;-75
2021/03/09 03:42:06;;;;;;;30.98;14.98;;;-1.70;99.90;;;;;;5015993;28;20049;-75
2021/03/09 03:44:33;;;;;;;34.65;15.68;;;-1.70;99.90;;;;;;5024213;28;20053;-75
2021/03/09 03:47:00;;;;;;;34.50;15.93;;;-1.60;99.90;;;;;;5031867;28;20502;-75
2021/03/09 03:49:26;;;;;;;35.10;16.90;;;-1.60;99.90;;;;;;5013374;28;20109;-75
2021/03/09 03:51:59;;;;;;;35.88;16.67;;;-1.50;99.90;;;;;;5013765;28;20030;-75
2021/03/09 03:54:50;;;;;;;39.40;17.02;;;-1.50;99.90;;;;;;5013447;28;20396;-75
2021/03/09 03:57:22;;;;;;;34.45;17.73;;;-1.50;99.90;;;;;;5028326;28;20045;-75
2021/03/09 03:59:56;;;;;;;34.05;15.20;;;-1.50;99.90;;;;;;5017347;28;20375;-75
2021/03/09 04:02:23;;;;;;;32.65;15.65;;;-1.40;99.90;;;;;;5027572;28;20053;-75
2021/03/09 04:04:50;;;;;;;34.00;17.08;;;-1.40;99.90;;;;;;5013899;28;20050;-75
2021/03/09 04:07:24;;;;;;;32.83;15.60;;;-1.40;99.90;;;;;;5023775;28;20498;-75
2021/03/09 04:09:56;;;;;;;32.70;16.88;;;-1.30;99.90;;;;;;5016972;28;20053;-75
2021/03/09 04:12:25;;;;;;;33.97;16.40;;;-1.30;99.90;;;;;;5013306;28;20045;-75
2021/03/09 04:14:51;;;;;;;34.97;16.17;;;-1.20;99.90;;;;;;5029613;28;20483;-74
2021/03/09 04:17:19;;;;;;;33.75;15.88;;;-1.20;99.90;;;;;;5013394;28;20030;-74
2021/03/09 04:19:47;;;;;;;34.97;17.95;;;-1.20;99.90;;;;;;5012887;28;20038;-74
2021/03/09 04:22:16;;;;;;;36.15;18.23;;;-1.30;99.90;;;;;;5027910;28;20041;-75
2021/03/09 04:24:43;;;;;;;38.92;17.38;;;-1.30;99.90;;;;;;5020263;28;20030;-74
2021/03/09 04:27:20;;;;;;;32.65;17.77;;;-1.20;99.90;;;;;;5012773;28;20037;-75
2021/03/09 04:29:58;;;;;;;37.40;17.95;;;-1.30;99.90;;;;;;5025377;28;20034;-74
2021/03/09 04:32:26;;;;;;;40.03;16.85;;;-1.30;99.90;;;;;;5021451;28;20042;-75
2021/03/09 04:34:54;;;;;;;36.15;17.90;;;-1.20;99.90;;;;;;5013231;28;20029;-74
2021/03/09 04:37:21;;;;;;;35.22;19.83;;;-1.20;99.90;;;;;;5012572;28;20368;-75
2021/03/09 04:39:48;;;;;;;41.97;22.60;;;-1.20;99.90;;;;;;5013642;28;20045;-74
2021/03/09 04:42:14;;;;;;;40.08;22.10;;;-1.20;99.90;;;;;;5012533;28;20053;-75
2021/03/09 04:44:41;;;;;;;42.97;22.90;;;-1.20;99.90;;;;;;5013005;28;20029;-75
2021/03/09 04:47:07;;;;;;;47.15;22.55;;;-1.10;99.90;;;;;;5012678;28;20041;-75
2021/03/09 04:49:36;;;;;;;43.40;22.85;;;-1.10;99.90;;;;;;5021660;28;20040;-74
2021/03/09 04:52:03;;;;;;;38.80;20.17;;;-1.00;99.90;;;;;;5027462;28;20034;-74
2021/03/09 04:54:32;;;;;;;43.05;21.63;;;-0.90;99.90;;;;;;5023578;28;20383;-75
2021/03/09 04:56:58;;;;;;;44.08;22.02;;;-0.90;99.90;;;;;;5013968;28;20025;-74
2021/03/09 04:59:25;;;;;;;38.97;20.30;;;-0.90;99.90;;;;;;5012355;28;20030;-74
2021/03/09 05:01:51;;;;;;;42.83;20.23;;;-0.90;99.90;;;;;;5012816;28;20045;-74
2021/03/09 05:04:17;;;;;;;46.33;20.42;;;-0.90;99.90;;;;;;5022390;28;20041;-75
2021/03/09 05:06:43;;;;;;;35.95;18.08;;;-0.90;99.90;;;;;;5019554;28;20030;-74
2021/03/09 05:09:09;;;;;;;35.20;16.75;;;-0.90;99.90;;;;;;5022952;28;20037;-75
2021/03/09 05:11:36;;;;;;;44.70;20.13;;;-0.90;99.90;;;;;;5023915;28;20041;-75
2021/03/09 05:14:02;;;;;;;32.85;16.05;;;-0.90;99.90;;;;;;5028102;28;20029;-74
2021/03/09 05:16:28;;;;;;;36.15;17.75;;;-0.90;99.90;;;;;;5026979;28;20455;-74
2021/03/09 05:18:54;;;;;;;34.17;18.42;;;-0.80;99.90;;;;;;5017318;28;20478;-74
2021/03/09 05:21:21;;;;;;;32.63;17.23;;;-0.80;99.90;;;;;;5033961;28;20489;-74
2021/03/09 05:23:47;;;;;;;40.58;18.35;;;-0.80;99.90;;;;;;5016356;28;20030;-74
2021/03/09 05:26:14;;;;;;;36.67;18.23;;;-0.80;99.90;;;;;;5016083;28;20038;-75
2021/03/09 05:28:40;;;;;;;34.92;18.05;;;-0.80;99.90;;;;;;5022230;28;20037;-74
2021/03/09 05:31:06;;;;;;;41.53;18.35;;;-0.80;99.90;;;;;;5034275;28;20029;-74
2021/03/09 05:33:32;;;;;;;35.80;18.08;;;-0.90;99.90;;;;;;5015647;28;20097;-74
2021/03/09 05:35:58;;;;;;;37.13;20.00;;;-0.90;99.90;;;;;;5025777;28;20081;-74
2021/03/09 05:38:25;;;;;;;40.95;18.90;;;-0.80;99.90;;;;;;5020086;28;20026;-74
2021/03/09 05:40:52;;;;;;;36.60;20.15;;;-0.70;99.90;;;;;;5016080;28;20482;-74
2021/03/09 05:43:18;;;;;;;37.03;17.90;;;-0.80;99.90;;;;;;5014622;28;20045;-74
2021/03/09 05:45:44;;;;;;;37.08;18.20;;;-0.80;99.90;;;;;;5034367;28;20427;-74
2021/03/09 05:48:12;;;;;;;40.08;18.60;;;-0.70;99.90;;;;;;5034070;28;20361;-74
2021/03/09 05:50:38;;;;;;;37.45;18.98;;;-0.70;99.90;;;;;;5034059;28;20033;-74
2021/03/09 05:53:05;;;;;;;37.20;19.60;;;-0.60;99.90;;;;;;5031440;28;20037;-74
2021/03/09 05:55:31;;;;;;;38.20;20.73;;;-0.60;99.90;;;;;;5033937;28;20025;-74
2021/03/09 05:57:57;;;;;;;40.72;20.75;;;-0.60;99.90;;;;;;5028504;28;20037;-74
2021/03/09 06:00:24;;;;;;;39.90;20.60;;;-0.60;99.90;;;;;;5017957;28;20037;-74
2021/03/09 06:02:52;;;;;;;39.33;19.20;;;-0.60;99.90;;;;;;5028793;28;20057;-74
2021/03/09 06:05:19;;;;;;;37.90;18.20;;;-0.60;99.90;;;;;;5025019;28;20046;-74
2021/03/09 06:07:46;;;;;;;43.92;20.25;;;-0.50;99.90;;;;;;5016995;28;20030;-74
2021/03/09 06:10:24;;;;;;;37.08;19.83;;;-0.50;99.90;;;;;;5020788;28;20033;-71
2021/03/09 06:12:52;;;;;;;42.22;19.40;;;-0.50;99.90;;;;;;5032332;28;20034;-73
2021/03/09 06:15:19;;;;;;;43.80;20.15;;;-0.50;99.90;;;;;;5019576;28;20030;-72
2021/03/09 06:17:54;;;;;;;41.67;21.38;;;-0.40;99.90;;;;;;5028141;28;20041;-73
2021/03/09 06:20:25;;;;;;;36.22;20.02;;;-0.40;99.90;;;;;;5033040;28;20056;-73
2021/03/09 06:22:59;;;;;;;47.80;22.10;;;-0.30;99.90;;;;;;5015448;28;20044;-73
2021/03/09 06:25:27;;;;;;;48.63;25.40;;;-0.20;99.90;;;;;;5018412;28;20042;-71
2021/03/09 06:28:00;;;;;;;49.60;26.98;;;-0.20;99.90;;;;;;5027366;28;20049;-72
2021/03/09 06:30:34;;;;;;;41.65;24.60;;;-0.10;99.90;;;;;;5014544;28;20042;-73
2021/03/09 06:33:02;;;;;;;40.88;22.42;;;0.00;99.90;;;;;;5014984;28;20391;-73
2021/03/09 06:35:34;;;;;;;42.50;21.63;;;0.10;99.90;;;;;;5014695;28;20029;-74
2021/03/09 06:38:21;;;;;;;38.00;20.73;;;0.10;99.90;;;;;;5014844;28;20033;-75
2021/03/09 06:41:19;;;;;;;39.35;19.80;;;0.20;99.90;;;;;;5019252;28;20056;-73
2021/03/09 06:44:00;;;;;;;39.65;21.17;;;0.20;99.90;;;;;;5014666;28;20049;-72
2021/03/09 06:46:30;;;;;;;41.83;21.13;;;0.30;99.90;;;;;;5023623;28;20037;-74
2021/03/09 06:49:02;;;;;;;45.55;23.85;;;0.30;99.90;;;;;;5033385;28;20046;-74
2021/03/09 06:51:36;;;;;;;42.78;23.02;;;0.40;99.90;;;;;;5016303;28;20048;-73
2021/03/09 06:54:02;;;;;;;41.85;22.35;;;0.40;99.90;;;;;;5014651;28;20041;-71
2021/03/09 06:56:29;;;;;;;44.25;23.83;;;0.50;99.90;;;;;;5015570;28;20034;-78
2021/03/09 06:58:55;;;;;;;40.10;22.05;;;0.50;99.90;;;;;;5032318;28;20032;-77
2021/03/09 07:01:23;;;;;;;44.35;21.30;;;0.60;99.90;;;;;;5021300;28;20042;-74
2021/03/09 07:03:50;;;;;;;36.22;20.10;;;0.60;99.90;;;;;;5023970;28;20045;-73
2021/03/09 07:06:16;;;;;;;41.92;20.38;;;0.70;99.90;;;;;;5033747;28;20030;-73
2021/03/09 07:08:42;;;;;;;37.55;19.52;;;0.70;99.90;;;;;;5031905;28;20029;-73
2021/03/09 07:11:09;;;;;;;36.38;18.33;;;0.80;99.90;;;;;;5026724;28;20030;-74
2021/03/09 07:13:39;;;;;;;32.85;17.83;;;0.90;99.90;;;;;;5014460;28;20038;-74
2021/03/09 07:16:05;;;;;;;37.67;20.20;;;1.00;99.90;;;;;;5026788;28;20352;-73
2021/03/09 07:18:34;;;;;;;35.88;20.05;;;1.10;99.90;;;;;;5022589;28;20387;-74
2021/03/09 07:21:01;;;;;;;33.63;17.75;;;1.20;99.90;;;;;;5020393;28;20073;-73
2021/03/09 07:23:30;;;;;;;34.03;16.92;;;1.20;99.90;;;;;;5014343;28;20053;-73
2021/03/09 07:26:00;;;;;;;34.45;20.27;;;1.40;99.90;;;;;;5031737;28;20037;-74
2021/03/09 07:28:35;;;;;;;33.17;17.55;;;1.60;99.90;;;;;;5014063;28;20364;-74
2021/03/09 07:31:04;;;;;;;32.50;19.60;;;1.70;99.90;;;;;;5014303;28;20144;-74
2021/03/09 07:33:32;;;;;;;35.25;19.13;;;1.80;99.90;;;;;;5025969;28;20048;-74
2021/03/09 07:36:02;;;;;;;31.80;17.67;;;1.90;99.90;;;;;;5014819;28;20029;-74
2021/03/09 07:38:29;;;;;;;30.27;17.95;;;2.00;99.90;;;;;;5013682;28;20037;-74
2021/03/09 07:40:56;;;;;;;35.72;19.17;;;2.10;99.90;;;;;;5012687;28;20096;-74
2021/03/09 07:43:22;;;;;;;30.98;19.15;;;2.20;99.90;;;;;;5013269;28;20462;-74
2021/03/09 07:45:49;;;;;;;33.53;20.02;;;2.40;99.90;;;;;;5018620;28;20030;-74
2021/03/09 07:48:20;;;;;;;33.20;19.60;;;2.40;99.90;;;;;;5013860;28;20026;-74
2021/03/09 07:50:48;;;;;;;30.40;17.77;;;2.60;99.90;;;;;;5013334;28;20030;-74
2021/03/09 07:53:19;;;;;;;31.92;19.33;;;2.50;99.90;;;;;;5013769;28;20061;-74
2021/03/09 07:56:09;;;;;;;31.33;18.85;;;2.50;99.90;;;;;;5013433;28;20025;-74
2021/03/09 07:58:35;;;;;;;33.30;19.02;;;2.70;99.90;;;;;;5012641;28;20379;-74
2021/03/09 08:01:07;;;;;;;29.88;18.83;;;2.80;99.90;;;;;;5012646;28;20371;-75
2021/03/09 08:03:40;;;;;;;28.98;18.02;;;2.90;99.90;;;;;;5013250;28;20426;-74
2021/03/09 08:06:08;;;;;;;28.58;18.55;;;3.10;99.90;;;;;;5027458;28;20470;-75
2021/03/09 08:08:43;;;;;;;30.95;19.85;;;3.40;99.90;;;;;;5019421;28;20042;-75
2021/03/09 08:11:18;;;;;;;32.95;17.88;;;3.50;99.90;;;;;;5017275;28;20395;-74
2021/03/09 08:13:49;;;;;;;33.00;18.15;;;3.90;99.90;;;;;;5025469;28;20030;-74
2021/03/09 08:16:25;;;;;;;28.70;16.52;;;3.90;99.90;;;;;;5013107;28;20029;-75
2021/03/09 08:18:53;;;;;;;31.23;17.63;;;4.10;99.90;;;;;;5013218;28;20038;-75
2021/03/09 08:21:39;;;;;;;30.13;17.55;;;4.30;99.90;;;;;;5012800;28;20034;-75
2021/03/09 08:24:06;;;;;;;26.95;17.55;;;4.30;99.90;;;;;;5013045;28;20048;-75
2021/03/09 08:26:32;;;;;;;30.85;17.88;;;4.30;99.90;;;;;;5012732;28;20037;-75
2021/03/09 08:28:59;;;;;;;28.30;16.25;;;4.20;99.90;;;;;;5020759;28;20485;-75
2021/03/09 08:31:27;;;;;;;26.55;17.17;;;4.50;99.90;;;;;;5027423;28;20025;-74
2021/03/09 08:34:13;;;;;;;31.02;17.90;;;4.70;99.70;;;;;;5012897;28;20038;-75
2021/03/09 08:36:40;;;;;;;25.88;16.08;;;4.70;99.10;;;;;;5012555;28;20463;-74
2021/03/09 08:39:12;;;;;;;27.65;16.65;;;4.90;97.70;;;;;;5030490;28;20040;-74
2021/03/09 08:41:38;;;;;;;26.73;16.80;;;4.70;98.00;;;;;;5030991;28;20033;-75
2021/03/09 08:44:21;;;;;;;30.90;16.83;;;4.70;98.20;;;;;;5031428;28;20041;-75
2021/03/09 08:47:04;;;;;;;27.77;16.75;;;4.90;97.40;;;;;;5030809;28;20119;-75
2021/03/09 08:49:37;;;;;;;24.88;17.00;;;4.80;96.50;;;;;;5024567;28;20042;-75
2021/03/09 08:52:06;;;;;;;24.52;15.18;;;4.80;96.10;;;;;;5023225;28;20360;-75
2021/03/09 08:54:41;;;;;;;23.30;14.85;;;4.70;96.10;;;;;;5034944;28;20033;-75
2021/03/09 08:57:13;;;;;;;24.10;14.95;;;4.80;95.50;;;;;;5016488;28;20026;-75
2021/03/09 08:59:41;;;;;;;23.33;15.43;;;4.70;94.80;;;;;;5029837;28;20044;-75
2021/03/09 09:02:22;;;;;;;24.65;16.15;;;4.70;95.50;;;;;;5023966;28;20030;-75
2021/03/09 09:05:06;;;;;;;26.60;16.35;;;4.70;94.70;;;;;;5011348;28;20042;-75
2021/03/09 09:07:36;;;;;;;31.83;17.38;;;4.80;94.60;;;;;;5012133;28;20495;-75
2021/03/09 09:10:19;;;;;;;25.55;16.15;;;4.80;94.00;;;;;;5012993;28;20029;-75
2021/03/09 09:12:47;;;;;;;24.63;15.38;;;4.80;94.50;;;;;;5022128;28;20050;-74
2021/03/09 09:15:25;;;;;;;27.38;16.17;;;4.80;93.70;;;;;;5019634;28;20026;-74
2021/03/09 09:18:08;;;;;;;25.33;16.88;;;5.10;93.50;;;;;;5025767;28;20030;-75
2021/03/09 09:20:35;;;;;;;20.60;14.00;;;5.70;92.20;;;;;;5012458;28;20030;-75
2021/03/09 09:23:13;;;;;;;24.58;14.50;;;6.10;90.80;;;;;;5012739;28;20050;-73
2021/03/09 09:25:41;;;;;;;23.85;14.63;;;6.30;88.50;;;;;;5012591;28;20050;-73
2021/03/09 09:28:08;;;;;;;22.98;14.27;;;6.50;86.20;;;;;;5015753;28;20034;-73
2021/03/09 09:30:43;;;;;;;20.63;13.38;;;6.60;85.50;;;;;;5032441;28;20034;-73
2021/03/09 09:33:11;;;;;;;26.67;16.08;;;6.80;83.40;;;;;;5012310;28;20057;-74
2021/03/09 09:35:39;;;;;;;19.48;14.15;;;7.00;83.50;;;;;;5012596;28;20105;-73
2021/03/09 09:38:10;;;;;;;24.23;14.88;;;6.40;84.20;;;;;;5024113;28;20365;-73
2021/03/09 09:40:42;;;;;;;16.75;11.23;;;6.50;84.30;;;;;;5012596;28;20046;-73
2021/03/09 09:43:12;;;;;;;18.35;13.52;;;6.60;81.70;;;;;;5024873;28;20053;-73
2021/03/09 09:45:48;;;;;;;22.45;14.73;;;6.70;81.20;;;;;;5019635;28;20040;-73
2021/03/09 09:48:18;;;;;;;21.80;14.70;;;6.70;80.70;;;;;;5011950;28;20033;-73
2021/03/09 09:50:58;;;;;;;21.00;14.80;;;7.00;80.90;;;;;;5012172;28;20038;-73
2021/03/09 09:53:32;;;;;;;24.17;15.48;;;7.40;78.70;;;;;;5014484;28;20037;-73
2021/03/09 09:56:01;;;;;;;24.60;14.48;;;7.50;76.70;;;;;;5025800;28;20038;-73
2021/03/09 09:59:02;;;;;;;24.13;14.60;;;7.30;77.50;;;;;;5017877;28;20041;-73
2021/03/09 10:01:38;;;;;;;25.15;15.52;;;7.40;76.80;;;;;;5009466;28;20058;-73
2021/03/09 10:04:06;;;;;;;22.75;13.80;;;7.40;76.10;;;;;;5011792;28;20510;-74
2021/03/09 10:06:50;;;;;;;20.20;13.80;;;7.40;76.00;;;;;;5014215;28;20057;-74
2021/03/09 10:09:35;;;;;;;19.63;11.55;;;7.10;74.90;;;;;;5016184;28;20510;-74
2021/03/09 10:12:04;;;;;;;22.80;12.60;;;7.00;74.90;;;;;;5015785;28;20026;-75
2021/03/09 10:14:32;;;;;;;20.67;12.88;;;7.00;75.30;;;;;;5034172;28;20284;-74
2021/03/09 10:17:00;;;;;;;20.17;14.52;;;6.90;75.50;;;;;;5033372;28;20033;-74
2021/03/09 10:19:37;;;;;;;22.08;14.80;;;6.90;75.60;;;;;;5023400;28;20463;-74
2021/03/09 10:22:19;;;;;;;20.23;13.35;;;7.00;75.90;;;;;;5034144;28;20036;-74
2021/03/09 10:24:46;;;;;;;21.55;14.32;;;7.10;75.10;;;;;;5018886;28;20497;-74
2021/03/09 10:27:20;;;;;;;21.50;13.25;;;7.00;75.30;;;;;;5032299;28;20037;-74
2021/03/09 10:29:48;;;;;;;24.55;15.77;;;7.20;75.00;;;;;;5043924;28;20029;-74
2021/03/09 10:32:16;;;;;;;12.77;8.50;;;7.40;74.50;;;;;;5014426;28;20041;-74
2021/03/09 10:34:51;;;;;;;18.40;10.10;;;7.90;70.70;;;;;;5022128;28;20486;-75
2021/03/09 10:37:39;;;;;;;13.07;8.23;;;8.10;69.10;;;;;;5015137;28;20041;-73
2021/03/09 10:40:11;;;;;;;9.43;5.60;;;7.90;69.00;;;;;;5030637;28;20033;-73
2021/03/09 10:42:39;;;;;;;12.25;7.03;;;8.20;67.00;;;;;;5015917;28;20038;-73
2021/03/09 10:45:26;;;;;;;15.07;7.85;;;7.90;67.40;;;;;;5015287;28;20070;-73
2021/03/09 10:48:01;;;;;;;16.30;9.05;;;8.00;66.80;;;;;;5020710;28;20057;-73
2021/03/09 10:50:29;;;;;;;13.98;7.50;;;7.90;68.70;;;;;;5015744;28;20486;-74
2021/03/09 10:52:56;;;;;;;14.75;9.18;;;8.10;68.20;;;;;;5014645;28;20038;-74
2021/03/09 10:55:23;;;;;;;15.40;9.55;;;8.10;67.70;;;;;;5014652;28;20306;-74
2021/03/09 10:57:50;;;;;;;17.83;10.27;;;8.20;67.00;;;;;;5014425;28;20045;-74
2021/03/09 11:00:18;;;;;;;11.35;7.68;;;7.60;67.80;;;;;;5035249;28;20034;-74
2021/03/09 11:02:45;;;;;;;13.05;8.65;;;7.40;68.10;;;;;;5014387;28;20399;-74
2021/03/09 11:05:12;;;;;;;11.80;8.43;;;7.30;69.00;;;;;;5014075;28;20061;-73
2021/03/09 11:07:39;;;;;;;12.68;8.20;;;7.10;68.80;;;;;;5014163;28;20041;-74
2021/03/09 11:10:07;;;;;;;14.32;9.60;;;7.30;68.70;;;;;;5015402;28;20026;-74
2021/03/09 11:12:34;;;;;;;15.50;9.40;;;7.20;68.80;;;;;;5031929;28;20041;-74
2021/03/09 11:15:00;;;;;;;14.88;10.30;;;7.40;67.90;;;;;;5014390;28;20033;-74
2021/03/09 11:17:26;;;;;;;17.70;10.43;;;7.30;68.40;;;;;;5013283;28;20037;-74
2021/03/09 11:19:52;;;;;;;16.60;10.13;;;7.40;69.10;;;;;;5013969;28;20379;-74
2021/03/09 11:22:19;;;;;;;14.98;9.07;;;7.80;67.20;;;;;;5013694;28;20033;-74
2021/03/09 11:24:45;;;;;;;13.68;9.13;;;7.90;66.00;;;;;;5014106;28;20042;-74
2021/03/09 11:27:12;;;;;;;12.98;7.88;;;8.00;66.80;;;;;;5018810;28;20115;-74
2021/03/09 11:29:38;;;;;;;13.98;8.68;;;8.40;64.20;;;;;;5032510;28;20033;-74
2021/03/09 11:32:05;;;;;;;15.25;8.85;;;8.20;65.10;;;;;;5032350;28;20045;-73
2021/03/09 11:34:32;;;;;;;14.00;8.82;;;8.00;66.30;;;;;;5032401;28;20376;-73
2021/03/09 11:36:58;;;;;;;15.13;10.32;;;8.40;65.40;;;;;;5019295;28;20038;-73
2021/03/09 11:39:25;;;;;;;16.08;8.85;;;8.60;63.90;;;;;;5022742;28;20038;-73
2021/03/09 11:41:53;;;;;;;15.88;9.93;;;8.30;63.70;;;;;;5030229;28;20037;-74
2021/03/09 11:44:21;;;;;;;15.82;10.32;;;8.30;64.70;;;;;;5020378;28;20041;-73
2021/03/09 11:46:49;;;;;;;13.23;9.60;;;8.60;62.50;;;;;;5025011;28;20033;-73
2021/03/09 11:49:16;;;;;;;13.95;9.02;;;8.50;63.00;;;;;;5018737;28;20391;-73
2021/03/09 11:51:43;;;;;;;14.13;9.40;;;8.40;63.20;;;;;;5031740;28;20126;-73
2021/03/09 11:54:09;;;;;;;15.52;9.65;;;8.50;62.00;;;;;;5031181;28;20079;-74
2021/03/09 11:56:35;;;;;;;13.02;8.32;;;8.70;62.50;;;;;;5019507;28;20121;-73
2021/03/09 11:59:02;;;;;;;14.18;9.10;;;8.80;62.60;;;;;;5022792;28;20037;-73
2021/03/09 12:01:28;;;;;;;14.45;8.73;;;9.30;61.80;;;;;;5019031;28;20459;-74
2021/03/09 12:03:54;;;;;;;12.73;8.68;;;9.30;60.60;;;;;;5020408;28;20044;-74
2021/03/09 12:06:21;;;;;;;12.57;7.95;;;9.40;60.10;;;;;;5025292;28;20034;-73
2021/03/09 12:08:48;;;;;;;14.43;9.70;;;8.70;60.20;;;;;;5013966;28;20038;-74
2021/03/09 12:11:14;;;;;;;15.18;9.43;;;8.30;62.30;;;;;;5020133;28;20044;-73
2021/03/09 12:13:41;;;;;;;13.95;9.55;;;8.30;61.80;;;;;;5018477;28;20097;-74
2021/03/09 12:16:07;;;;;;;13.43;8.30;;;7.80;62.00;;;;;;5024809;28;20026;-74
2021/03/09 12:18:33;;;;;;;13.70;8.55;;;8.00;62.30;;;;;;5023147;28;20029;-74
2021/03/09 12:21:00;;;;;;;14.13;9.20;;;8.30;61.50;;;;;;5012954;28;20486;-74
2021/03/09 12:23:26;;;;;;;13.45;8.82;;;8.30;61.40;;;;;;5020662;28;20435;-73
2021/03/09 12:25:52;;;;;;;12.50;8.35;;;8.30;61.50;;;;;;5022213;28;20033;-73
2021/03/09 12:28:19;;;;;;;15.95;7.38;;;8.30;60.70;;;;;;5015972;28;20411;-73
2021/03/09 12:30:45;;;;;;;10.63;6.65;;;8.40;61.20;;;;;;5031475;28;20041;-73
2021/03/09 12:33:12;;;;;;;11.45;7.70;;;8.70;60.00;;;;;;5031221;28;20041;-72
2021/03/09 12:35:39;;;;;;;11.07;7.15;;;8.90;59.30;;;;;;5017069;28;20033;-73
2021/03/09 12:38:05;;;;;;;11.75;7.47;;;9.20;58.80;;;;;;5020730;28;20026;-73
2021/03/09 12:40:31;;;;;;;9.27;6.45;;;8.80;58.30;;;;;;5012577;28;20630;-73
2021/03/09 12:42:58;;;;;;;11.30;7.10;;;8.80;58.80;;;;;;5012564;28;20048;-74
2021/03/09 12:45:24;;;;;;;14.15;7.72;;;8.50;59.70;;;;;;5012667;28;20042;-73